Time;durP1;ratioP1;P1;durP2;ratioP2;P2;SDS_P1;SDS_P2;PMS_P1;PMS_P2;Temp;Humidity;BMP_temperature;BMP_pressure;BME280_temperature;BME280_humidity;BME280_pressure;Samples;Min_cycle;Max_cycle;Signal;HPM_P1;HPM_P2
2022/09/17 00:01:30;;;;;;;;;0.75;0.75;;;;;13.66;53.76;101186.25;4822841;29;46534;-75
2022/09/17 00:07:17;;;;;;;;;1.25;0.75;;;;;13.66;54.00;101202.88;4822925;29;45727;-77
2022/09/17 00:09:43;;;;;;;;;1.25;1.25;;;;;13.66;53.86;101199.41;4824233;29;45632;-73
2022/09/17 00:12:09;;;;;;;;;1.00;1.00;;;;;13.65;54.04;101218.81;4823535;29;46080;-76
2022/09/17 00:14:34;;;;;;;;;1.00;1.00;;;;;13.63;53.84;101208.41;4824005;29;45532;-75
2022/09/17 00:16:59;;;;;;;;;1.00;1.00;;;;;13.64;53.83;101212.72;4824156;29;45656;-75
2022/09/17 00:22:46;;;;;;;;;1.25;1.00;;;;;13.58;54.22;101200.00;4823612;29;45802;-75
2022/09/17 00:25:12;;;;;;;;;1.25;1.00;;;;;13.58;54.64;101196.53;4823642;29;45622;-75
2022/09/17 00:27:37;;;;;;;;;1.00;1.00;;;;;13.58;54.26;101197.38;4824001;29;45710;-78
2022/09/17 00:30:03;;;;;;;;;1.00;1.00;;;;;13.53;54.37;101201.28;4821902;29;46615;-74
2022/09/17 00:32:29;;;;;;;;;0.75;0.50;;;;;13.52;54.64;101192.56;4823504;29;46383;-76
2022/09/17 00:34:54;;;;;;;;;0.50;0.25;;;;;13.64;54.42;101214.50;4824115;29;45557;-75
2022/09/17 00:37:20;;;;;;;;;1.00;1.00;;;;;13.63;54.75;101215.44;4823742;29;45776;-73
2022/09/17 00:39:45;;;;;;;;;1.00;0.50;;;;;13.61;54.20;101207.66;4823297;29;46440;-78
2022/09/17 00:42:12;;;;;;;;;1.75;0.50;;;;;13.57;54.60;101219.38;4823829;29;45644;-75
2022/09/17 00:44:47;;;;;;;;;2.00;1.00;;;;;13.52;54.54;101213.63;4823592;29;45715;-73
2022/09/17 00:47:14;;;;;;;;;2.75;1.00;;;;;13.51;54.64;101211.09;4824566;29;45728;-75
2022/09/17 00:53:12;;;;;;;;;1.00;1.00;;;;;13.43;54.61;101204.63;4823515;29;46172;-76
2022/09/17 00:56:00;;;;;;;;;0.50;0.50;;;;;13.47;54.89;101212.28;4823626;29;45808;-75
2022/09/17 00:58:26;;;;;;;;;1.00;1.00;;;;;13.42;54.83;101205.56;4806950;29;45659;-75
2022/09/17 01:00:52;;;;;;;;;1.50;1.00;;;;;13.42;55.08;101202.94;4823027;29;47281;-74
2022/09/17 01:03:17;;;;;;;;;0.00;0.00;;;;;13.38;54.78;101203.28;4823141;29;45520;-73
2022/09/17 01:06:10;;;;;;;;;2.00;1.00;;;;;13.39;55.01;101215.44;4823573;29;45735;-74
2022/09/17 01:08:56;;;;;;;;;1.00;1.00;;;;;13.38;54.86;101217.28;4822991;29;45822;-74
2022/09/17 01:11:49;;;;;;;;;1.00;0.00;;;;;13.38;55.08;101208.53;4822978;29;46720;-72
2022/09/17 01:14:32;;;;;;;;;1.00;1.00;;;;;13.38;55.03;101209.38;4823360;29;46000;-71
2022/09/17 01:17:06;;;;;;;;;1.00;1.00;;;;;13.41;55.17;101216.19;4823321;29;45664;-73
2022/09/17 01:19:51;;;;;;;;;0.25;0.25;;;;;13.43;55.33;101215.16;4823106;29;45746;-75
2022/09/17 01:22:50;;;;;;;;;2.00;1.00;;;;;13.42;55.49;101217.88;4823063;29;46537;-73
2022/09/17 01:25:23;;;;;;;;;1.00;1.00;;;;;13.33;55.34;101205.41;4748486;29;47206;-75
2022/09/17 01:28:12;;;;;;;;;1.00;0.00;;;;;13.33;55.47;101221.19;4748458;29;45874;-74
2022/09/17 01:30:37;;;;;;;;;0.25;0.00;;;;;13.34;55.41;101226.31;4748791;29;45841;-73
2022/09/17 01:33:06;;;;;;;;;1.00;1.00;;;;;13.30;55.84;101221.41;4748544;29;45646;-76
2022/09/17 01:36:08;;;;;;;;;2.00;1.25;;;;;13.28;55.73;101239.09;4748730;29;46406;-76
2022/09/17 01:39:05;;;;;;;;;1.50;0.50;;;;;13.26;55.97;101217.31;4716156;30;45702;-75
2022/09/17 01:41:49;;;;;;;;;1.00;1.00;;;;;13.25;55.73;101227.00;4715776;29;45652;-75
2022/09/17 01:44:30;;;;;;;;;1.00;0.00;;;;;13.18;55.99;101236.28;4716244;30;46659;-74
2022/09/17 01:47:14;;;;;;;;;0.00;0.00;;;;;13.12;56.04;101220.94;4716318;30;46266;-76
2022/09/17 01:53:04;;;;;;;;;0.25;0.25;;;;;13.15;55.99;101235.66;4716119;30;45679;-77
2022/09/17 01:55:35;;;;;;;;;0.00;0.00;;;;;13.13;56.42;101242.81;4715987;30;45808;-75
2022/09/17 01:58:21;;;;;;;;;1.00;1.00;;;;;13.14;56.04;101255.88;4716202;30;45703;-75
2022/09/17 02:00:52;;;;;;;;;2.00;1.75;;;;;13.10;56.29;101246.50;4654484;30;45737;-75
2022/09/17 02:03:26;;;;;;;;;0.50;0.00;;;;;13.10;55.94;101249.13;4698646;30;45697;-72
2022/09/17 02:09:36;;;;;;;;;4.00;1.00;;;;;12.98;56.59;101239.47;4696589;30;46183;-74
2022/09/17 02:12:07;;;;;;;;;1.00;1.00;;;;;12.95;56.36;101245.78;4698037;30;45781;-77
2022/09/17 02:14:41;;;;;;;;;0.25;0.25;;;;;12.93;56.78;101238.94;4706523;29;45684;-76
2022/09/17 02:17:20;;;;;;;;;0.00;0.00;;;;;12.91;56.85;101244.31;4751422;29;46458;-76
2022/09/17 02:19:46;;;;;;;;;1.00;0.00;;;;;12.91;56.74;101243.47;4751134;29;46062;-76
2022/09/17 02:22:49;;;;;;;;;0.00;0.00;;;;;12.89;56.34;101251.50;4751331;29;45814;-77
2022/09/17 02:25:24;;;;;;;;;1.00;1.00;;;;;12.85;56.37;101250.00;4698519;30;46115;-77
2022/09/17 02:27:58;;;;;;;;;0.00;0.00;;;;;12.81;56.67;101248.53;4698737;30;46433;-77
2022/09/17 02:30:24;;;;;;;;;0.00;0.00;;;;;12.78;56.83;101242.66;4697903;30;47218;-76
2022/09/17 02:32:50;;;;;;;;;0.75;0.75;;;;;12.77;57.06;101246.22;4698275;30;45609;-73
2022/09/17 02:35:16;;;;;;;;;0.00;0.00;;;;;12.78;56.77;101240.03;4698763;30;45878;-75
2022/09/17 02:37:42;;;;;;;;;0.75;0.00;;;;;12.77;56.96;101244.44;4727607;29;47736;-76
2022/09/17 02:40:11;;;;;;;;;0.00;0.00;;;;;12.71;56.91;101226.47;4768298;29;46198;-75
2022/09/17 02:43:14;;;;;;;;;0.25;0.25;;;;;12.72;56.92;101236.03;4768746;29;45805;-74
2022/09/17 02:45:58;;;;;;;;;0.25;0.25;;;;;12.70;57.23;101230.03;4768581;29;45762;-71
2022/09/17 02:48:40;;;;;;;;;2.50;1.00;;;;;12.70;57.06;101237.94;4768639;29;47075;-72
2022/09/17 02:51:08;;;;;;;;;0.25;0.00;;;;;12.71;56.99;101223.84;4769088;29;46148;-75
2022/09/17 02:53:51;;;;;;;;;0.00;0.00;;;;;12.72;56.77;101225.53;4769074;29;45615;-75
2022/09/17 02:56:33;;;;;;;;;0.00;0.00;;;;;12.67;56.96;101227.63;4769110;29;45690;-77
2022/09/17 02:59:14;;;;;;;;;0.00;0.00;;;;;12.66;56.97;101235.63;4768286;29;45662;-73
2022/09/17 03:02:05;;;;;;;;;1.00;1.00;;;;;12.63;56.94;101229.63;4788218;29;46318;-76
2022/09/17 03:05:18;;;;;;;;;1.00;0.00;;;;;12.63;56.98;101255.91;4824766;29;45520;-75
2022/09/17 03:07:43;;;;;;;;;1.00;0.75;;;;;12.62;57.33;101253.41;4825496;29;45852;-75
2022/09/17 03:10:09;;;;;;;;;1.00;0.00;;;;;12.61;57.04;101242.06;4824732;29;47029;-73
2022/09/17 03:12:35;;;;;;;;;1.00;0.00;;;;;12.61;57.11;101238.56;4824740;29;45647;-76
2022/09/17 03:15:00;;;;;;;;;1.00;0.75;;;;;12.57;57.16;101231.88;4824606;29;45693;-76
2022/09/17 03:17:25;;;;;;;;;1.25;1.00;;;;;12.54;57.01;101219.75;4824829;29;45755;-77
2022/09/17 03:19:51;;;;;;;;;1.00;1.00;;;;;12.55;57.24;101224.06;4824424;29;46483;-73
2022/09/17 03:22:16;;;;;;;;;0.00;0.00;;;;;12.61;57.12;101239.41;4824776;29;45566;-76
2022/09/17 03:24:41;;;;;;;;;1.00;0.00;;;;;12.60;57.19;101239.53;4825182;29;45692;-72
2022/09/17 03:27:07;;;;;;;;;1.00;1.00;;;;;12.60;57.19;101242.16;4825006;29;45563;-77
2022/09/17 03:29:32;;;;;;;;;1.50;1.00;;;;;12.60;57.57;101242.16;4824783;29;46692;-75
2022/09/17 03:31:58;;;;;;;;;1.00;0.00;;;;;12.58;57.38;101236.16;4816874;29;45990;-75
2022/09/17 03:34:23;;;;;;;;;1.75;1.00;;;;;12.59;57.56;101233.41;4824623;29;45703;-74
2022/09/17 03:40:10;;;;;;;;;1.25;1.00;;;;;12.51;58.14;101234.91;4825333;29;45993;-72
2022/09/17 03:42:36;;;;;;;;;2.00;1.00;;;;;12.54;57.98;101243.41;4824632;29;46816;-74
2022/09/17 03:45:01;;;;;;;;;0.25;0.25;;;;;12.55;57.90;101247.72;4824554;29;45739;-72
2022/09/17 03:47:27;;;;;;;;;1.25;0.25;;;;;12.54;57.77;101237.31;4824914;29;45550;-70
2022/09/17 03:49:52;;;;;;;;;1.00;1.00;;;;;12.53;57.84;101246.97;4824189;29;46377;-71
2022/09/17 03:55:40;;;;;;;;;1.00;0.25;;;;;12.49;57.88;101257.81;4824243;29;45681;-71
2022/09/17 03:58:05;;;;;;;;;0.00;0.00;;;;;12.44;57.73;101257.28;4823900;29;45842;-76
2022/09/17 04:00:31;;;;;;;;;1.00;1.00;;;;;12.37;57.99;101243.72;4823172;29;46061;-74
2022/09/17 04:02:57;;;;;;;;;0.75;0.75;;;;;12.44;57.81;101252.03;4824065;29;45884;-72
2022/09/17 04:05:22;;;;;;;;;1.00;1.00;;;;;12.40;58.04;101253.19;4824032;29;45894;-72
2022/09/17 04:07:48;;;;;;;;;0.00;0.00;;;;;12.40;58.28;101247.94;4823623;29;45657;-73
2022/09/17 04:10:13;;;;;;;;;0.00;0.00;;;;;12.41;58.30;101263.63;4823615;29;47166;-75
2022/09/17 04:12:39;;;;;;;;;1.00;1.00;;;;;12.36;58.41;101259.63;4824092;29;46260;-73
2022/09/17 04:15:05;;;;;;;;;2.00;1.00;;;;;12.36;58.67;101254.38;4824302;29;45630;-75
2022/09/17 04:17:31;;;;;;;;;0.00;0.00;;;;;12.31;58.49;101257.28;4824189;29;45535;-74
2022/09/17 04:19:57;;;;;;;;;0.00;0.00;;;;;12.38;58.64;101265.59;4823819;29;46685;-72
2022/09/17 04:25:44;;;;;;;;;1.00;0.00;;;;;12.32;58.63;101277.34;4823936;29;45767;-75
2022/09/17 04:28:10;;;;;;;;;0.25;0.25;;;;;12.29;58.86;101268.84;4823716;29;45926;-77
2022/09/17 04:30:36;;;;;;;;;0.00;0.00;;;;;12.31;58.91;101283.56;4823663;29;46272;-72
2022/09/17 04:33:02;;;;;;;;;1.00;0.00;;;;;12.25;59.03;101270.00;4823978;29;45879;-73
2022/09/17 04:35:28;;;;;;;;;0.25;0.00;;;;;12.27;58.88;101289.97;4807016;29;45674;-74
2022/09/17 04:41:15;;;;;;;;;1.00;1.00;;;;;12.18;58.87;101299.31;4823651;29;45558;-73
2022/09/17 04:43:40;;;;;;;;;0.25;0.00;;;;;12.15;59.17;101285.53;4823356;29;45619;-76
2022/09/17 04:46:05;;;;;;;;;0.00;0.00;;;;;12.08;58.98;101289.53;4823912;29;45548;-72
2022/09/17 04:48:31;;;;;;;;;1.25;0.00;;;;;12.04;59.62;101286.22;4823873;29;45797;-73
2022/09/17 04:50:56;;;;;;;;;1.75;0.00;;;;;12.06;59.79;101281.75;4823549;29;45683;-74
2022/09/17 04:53:21;;;;;;;;;1.00;1.00;;;;;12.06;59.79;101294.88;4823574;29;45579;-70
2022/09/17 04:55:47;;;;;;;;;1.75;1.00;;;;;12.05;60.11;101280.03;4823664;29;45602;-75
2022/09/17 04:58:12;;;;;;;;;1.00;0.00;;;;;12.03;59.77;101281.09;4823442;29;45867;-76
2022/09/17 05:00:38;;;;;;;;;0.00;0.00;;;;;12.03;60.31;101287.22;4823098;29;46241;-76
2022/09/17 05:03:03;;;;;;;;;0.50;0.50;;;;;12.01;60.32;101296.13;4823530;29;46032;-74
2022/09/17 05:05:28;;;;;;;;;0.00;0.00;;;;;11.96;60.15;101285.91;4823521;29;45807;-75
2022/09/17 05:11:42;;;;;;;;;0.50;0.50;;;;;11.91;60.38;101293.25;4821883;29;46075;-72
2022/09/17 05:14:08;;;;;;;;;2.00;2.00;;;;;11.97;60.42;101303.38;4823290;29;45748;-74
2022/09/17 05:16:33;;;;;;;;;1.25;1.00;;;;;11.93;60.15;101291.34;4823300;29;45723;-74
2022/09/17 05:18:59;;;;;;;;;0.00;0.00;;;;;11.98;60.59;101299.81;4823191;29;45605;-72
2022/09/17 05:21:24;;;;;;;;;2.00;1.25;;;;;11.99;60.56;101292.72;4822943;29;45635;-74
2022/09/17 05:23:50;;;;;;;;;1.00;1.00;;;;;11.93;60.38;101293.97;4822679;29;47048;-73
2022/09/17 05:26:15;;;;;;;;;1.00;0.00;;;;;11.95;60.61;101296.50;4822850;29;45442;-73
2022/09/17 05:28:41;;;;;;;;;1.00;0.00;;;;;11.91;60.74;101302.91;4822803;29;45475;-74
2022/09/17 05:31:07;;;;;;;;;2.00;0.00;;;;;11.94;60.66;101314.06;4822659;29;45684;-72
2022/09/17 05:33:32;;;;;;;;;0.75;0.50;;;;;11.92;60.74;101312.47;4822068;29;46121;-74
2022/09/17 05:35:58;;;;;;;;;0.00;0.00;;;;;11.95;60.52;101309.66;4821487;29;45947;-72
2022/09/17 05:41:45;;;;;;;;;1.00;1.00;;;;;11.96;60.50;101312.19;4822372;29;45943;-73
2022/09/17 05:44:11;;;;;;;;;1.25;1.00;;;;;11.92;60.41;101305.44;4806339;29;47359;-74
2022/09/17 05:46:39;;;;;;;;;0.00;0.00;;;;;11.89;60.56;101305.63;4821805;29;45670;-75
2022/09/17 05:49:05;;;;;;;;;1.00;0.75;;;;;11.88;60.64;101305.72;4821725;29;46032;-74
2022/09/17 05:51:30;;;;;;;;;1.50;0.00;;;;;11.89;60.67;101300.38;4822447;29;46674;-75
2022/09/17 05:57:19;;;;;;;;;0.00;0.00;;;;;11.91;60.39;101303.75;4822944;29;45610;-74
2022/09/17 05:59:44;;;;;;;;;1.00;1.00;;;;;11.88;60.30;101297.84;4822687;29;45850;-73
2022/09/17 06:02:12;;;;;;;;;0.75;0.00;;;;;11.94;60.25;101314.06;4822288;29;45923;-74
2022/09/17 06:04:38;;;;;;;;;1.00;1.00;;;;;11.96;60.23;101313.97;4822894;29;47390;-73
2022/09/17 06:07:06;;;;;;;;;1.50;1.00;;;;;11.97;60.14;101313.03;4823046;29;45510;-73
2022/09/17 06:09:35;;;;;;;;;2.00;0.50;;;;;11.98;60.18;101306.84;4822730;29;45596;-75
2022/09/17 06:12:00;;;;;;;;;1.00;0.75;;;;;12.01;60.03;101311.88;4822437;29;46473;-72
2022/09/17 06:14:26;;;;;;;;;1.00;1.00;;;;;12.04;59.99;101320.38;4822450;29;47024;-73
2022/09/17 06:16:51;;;;;;;;;0.00;0.00;;;;;12.07;59.79;101322.81;4822216;29;45680;-73
2022/09/17 06:19:16;;;;;;;;;1.00;0.25;;;;;12.08;59.55;101315.78;4822799;29;45742;-73
2022/09/17 06:21:42;;;;;;;;;1.50;1.00;;;;;12.10;59.51;101337.53;4822679;29;46534;-73
2022/09/17 06:27:33;;;;;;;;;1.00;0.00;;;;;12.11;59.40;101332.19;4825324;29;45697;-74
2022/09/17 06:29:59;;;;;;;;;1.00;0.00;;;;;12.15;59.29;101336.28;4825261;29;45911;-74
2022/09/17 06:32:25;;;;;;;;;0.00;0.00;;;;;12.16;59.23;101324.00;4825445;29;46460;-74
2022/09/17 06:34:51;;;;;;;;;2.00;1.25;;;;;12.13;59.19;101316.31;4825184;29;46302;-74
2022/09/17 06:37:17;;;;;;;;;1.00;1.00;;;;;12.17;58.97;101328.31;4825599;29;45865;-74
2022/09/17 06:43:04;;;;;;;;;1.00;1.00;;;;;12.21;59.08;101340.28;4825158;29;45642;-74
2022/09/17 06:45:29;;;;;;;;;1.75;1.00;;;;;12.18;59.20;101354.47;4825118;29;46442;-73
2022/09/17 06:47:55;;;;;;;;;1.00;1.00;;;;;12.13;58.83;101334.72;4825020;29;45775;-75
2022/09/17 06:50:20;;;;;;;;;1.00;1.00;;;;;12.14;58.84;101333.78;4825111;29;45511;-74
2022/09/17 06:52:52;;;;;;;;;2.50;2.00;;;;;12.19;58.79;101358.81;4825140;29;45686;-74
2022/09/17 06:55:19;;;;;;;;;0.75;0.75;;;;;12.21;58.89;101350.78;4825171;29;46077;-73
2022/09/17 06:57:44;;;;;;;;;0.00;0.00;;;;;12.24;58.91;101352.41;4825152;29;45787;-74
2022/09/17 07:00:11;;;;;;;;;1.00;0.50;;;;;12.20;58.77;101336.81;4825025;29;45553;-74
2022/09/17 07:02:37;;;;;;;;;0.00;0.00;;;;;12.22;58.56;101335.88;4824888;29;46851;-74
2022/09/17 07:05:03;;;;;;;;;0.50;0.00;;;;;12.30;58.43;101352.00;4824858;29;47030;-74
2022/09/17 07:07:28;;;;;;;;;2.25;0.25;;;;;12.31;58.20;101365.00;4825230;29;45713;-73
2022/09/17 07:13:44;;;;;;;;;1.00;1.00;;;;;12.35;58.09;101355.16;4823664;29;45920;-73
2022/09/17 07:16:10;;;;;;;;;1.00;0.00;;;;;12.32;58.03;101347.44;4824872;29;45946;-73
2022/09/17 07:18:35;;;;;;;;;0.00;0.00;;;;;12.36;57.78;101359.47;4824920;29;45699;-75
2022/09/17 07:21:04;;;;;;;;;0.00;0.00;;;;;12.35;57.72;101358.63;4825165;29;45542;-74
2022/09/17 07:23:34;;;;;;;;;0.00;0.00;;;;;12.25;57.42;101336.53;4824798;29;47759;-73
2022/09/17 07:26:02;;;;;;;;;0.00;0.00;;;;;12.37;57.62;101354.09;4825032;29;46280;-75
2022/09/17 07:28:28;;;;;;;;;1.00;1.00;;;;;12.39;57.31;101348.75;4824462;29;45555;-75
2022/09/17 07:30:55;;;;;;;;;0.00;0.00;;;;;12.41;57.22;101350.34;4824642;29;45935;-74
2022/09/17 07:33:23;;;;;;;;;0.25;0.25;;;;;12.41;57.26;101345.06;4823713;29;46872;-73
2022/09/17 07:36:00;;;;;;;;;0.25;0.25;;;;;12.36;56.84;101352.41;4824589;29;46434;-73
2022/09/17 07:38:27;;;;;;;;;0.75;0.00;;;;;12.42;56.78;101351.16;4824555;29;45764;-74
2022/09/17 07:40:59;;;;;;;;;0.00;0.00;;;;;12.30;56.92;101323.09;4824625;29;45991;-75
2022/09/17 07:43:33;;;;;;;;;0.25;0.00;;;;;12.51;56.77;101342.66;4823166;29;46496;-73
2022/09/17 07:46:00;;;;;;;;;0.00;0.00;;;;;12.56;56.85;101356.34;4824696;29;46118;-73
2022/09/17 07:48:27;;;;;;;;;1.00;0.00;;;;;12.60;57.01;101363.91;4824468;29;45506;-73
2022/09/17 07:50:52;;;;;;;;;0.00;0.00;;;;;12.63;56.49;101356.78;4824490;29;45897;-72
2022/09/17 07:53:18;;;;;;;;;0.00;0.00;;;;;12.69;56.36;101348.44;4824560;29;46833;-76
2022/09/17 07:55:58;;;;;;;;;1.00;0.00;;;;;12.72;56.15;101356.16;4824188;29;47272;-73
2022/09/17 07:58:35;;;;;;;;;1.50;0.00;;;;;12.74;56.33;101365.59;4824007;29;45702;-74
2022/09/17 08:01:07;;;;;;;;;0.00;0.00;;;;;12.78;56.03;101353.94;4824410;29;45528;-72
2022/09/17 08:03:36;;;;;;;;;1.50;0.00;;;;;12.80;55.76;101352.03;4807315;29;47944;-76
2022/09/17 08:06:07;;;;;;;;;0.00;0.00;;;;;12.85;55.79;101343.81;4824410;29;46108;-74
2022/09/17 08:08:38;;;;;;;;;0.00;0.00;;;;;12.92;55.50;101361.72;4824172;29;45687;-75
2022/09/17 08:11:06;;;;;;;;;1.00;0.00;;;;;12.94;55.42;101349.31;4822713;29;45990;-74
2022/09/17 08:13:32;;;;;;;;;0.75;0.00;;;;;13.00;55.32;101353.31;4823990;29;45727;-75
2022/09/17 08:16:06;;;;;;;;;0.25;0.00;;;;;12.97;55.30;101340.34;4824294;29;46049;-74
2022/09/17 08:18:32;;;;;;;;;0.00;0.00;;;;;13.10;55.61;101354.34;4823566;29;45690;-75
2022/09/17 08:20:58;;;;;;;;;0.00;0.00;;;;;13.18;55.36;101364.34;4823688;29;45603;-74
2022/09/17 08:23:25;;;;;;;;;0.00;0.00;;;;;13.24;55.37;101362.16;4824224;29;46317;-75
2022/09/17 08:29:12;;;;;;;;;0.00;0.00;;;;;13.33;55.26;101361.50;4823885;29;45785;-74
2022/09/17 08:31:38;;;;;;;;;0.00;0.00;;;;;13.42;54.96;101370.53;4823278;29;45645;-74
2022/09/17 08:34:10;;;;;;;;;1.00;0.00;;;;;13.49;54.52;101376.22;4823934;29;47287;-74
2022/09/17 08:36:35;;;;;;;;;1.00;0.00;;;;;13.52;54.90;101366.31;4824150;29;46297;-75
2022/09/17 08:39:01;;;;;;;;;1.00;0.00;;;;;13.61;54.52;101375.31;4823452;29;45656;-75
2022/09/17 08:41:39;;;;;;;;;0.00;0.00;;;;;13.69;54.30;101370.38;4824186;29;45777;-75
2022/09/17 08:44:07;;;;;;;;;0.50;0.00;;;;;13.73;54.45;101377.94;4824184;29;45646;-75
2022/09/17 08:46:44;;;;;;;;;0.50;0.00;;;;;13.78;54.39;101386.34;4822451;29;46000;-72
2022/09/17 08:49:15;;;;;;;;;0.00;0.00;;;;;13.84;54.19;101379.78;4823658;29;45699;-74
2022/09/17 08:52:02;;;;;;;;;2.00;0.50;;;;;13.89;53.98;101404.00;4823836;29;45840;-73
2022/09/17 08:54:39;;;;;;;;;0.00;0.00;;;;;13.90;53.77;101383.78;4823602;29;45545;-75
2022/09/17 08:57:22;;;;;;;;;0.00;0.00;;;;;13.96;54.16;101389.44;4823231;29;46360;-73
2022/09/17 08:59:56;;;;;;;;;0.50;0.00;;;;;14.02;53.64;101391.66;4823332;29;45788;-74
2022/09/17 09:02:50;;;;;;;;;1.00;0.75;;;;;14.05;53.42;101383.50;4823546;29;45535;-75
2022/09/17 09:05:20;;;;;;;;;0.00;0.00;;;;;14.13;53.43;101380.31;4822020;29;48702;-73
2022/09/17 09:07:52;;;;;;;;;0.00;0.00;;;;;14.17;53.88;101397.56;4823499;29;46043;-72
2022/09/17 09:10:23;;;;;;;;;1.75;0.00;;;;;14.21;53.26;101389.31;4821680;29;45678;-72
2022/09/17 09:12:51;;;;;;;;;0.00;0.00;;;;;14.21;52.75;101380.56;4823470;29;45548;-72
2022/09/17 09:15:29;;;;;;;;;1.50;1.00;;;;;14.28;53.17;101387.94;4822993;29;47498;-73
2022/09/17 09:18:00;;;;;;;;;0.00;0.00;;;;;14.30;52.56;101386.00;4821688;29;48362;-72
2022/09/17 09:21:13;;;;;;;;;0.00;0.00;;;;;14.37;52.31;101404.03;4823437;29;45470;-73
2022/09/17 09:24:03;;;;;;;;;0.50;0.00;;;;;14.40;52.02;101386.22;4817366;29;45542;-73
2022/09/17 09:26:34;;;;;;;;;0.00;0.00;;;;;14.44;52.48;101394.72;4823243;29;47478;-74
2022/09/17 09:29:16;;;;;;;;;0.00;0.00;;;;;14.45;52.32;101388.50;4823664;29;47019;-72
2022/09/17 09:32:19;;;;;;;;;2.00;1.00;;;;;14.51;52.03;101404.72;4822979;29;45598;-72
2022/09/17 09:34:46;;;;;;;;;0.00;0.00;;;;;14.58;52.29;101415.63;4823022;29;45572;-72
2022/09/17 09:37:23;;;;;;;;;0.00;0.00;;;;;14.62;51.88;101401.28;4822333;29;48156;-72
2022/09/17 09:43:18;;;;;;;;;0.75;0.00;;;;;14.78;51.59;101404.44;4822812;29;45630;-71
2022/09/17 09:45:44;;;;;;;;;0.00;0.00;;;;;14.83;51.09;101404.91;4823293;29;45703;-71
2022/09/17 09:48:40;;;;;;;;;0.00;0.00;;;;;14.91;50.57;101404.31;4822629;29;46101;-72
2022/09/17 09:51:17;;;;;;;;;0.25;0.00;;;;;14.92;50.90;101400.72;4822295;29;46221;-73
2022/09/17 09:54:06;;;;;;;;;0.00;0.00;;;;;14.99;51.26;101407.22;4821138;29;45757;-72
2022/09/17 10:00:34;;;;;;;;;0.00;0.00;;;;;15.10;49.71;101401.97;4787443;29;46072;-74
2022/09/17 10:03:12;;;;;;;;;0.00;0.00;;;;;15.11;48.99;101403.66;4787123;29;46840;-73
2022/09/17 10:05:37;;;;;;;;;0.00;0.00;;;;;15.16;49.10;101406.78;4787028;29;45837;-72
2022/09/17 10:08:13;;;;;;;;;0.00;0.00;;;;;15.08;48.86;101399.44;4788014;29;45824;-72
2022/09/17 10:10:58;;;;;;;;;1.00;0.00;;;;;15.25;48.14;101392.84;4787211;29;45654;-71
2022/09/17 10:13:25;;;;;;;;;1.00;0.50;;;;;15.31;47.70;101402.94;4786507;29;46077;-71
2022/09/17 10:15:50;;;;;;;;;0.75;0.00;;;;;15.34;47.72;101407.97;4786750;29;45827;-71
2022/09/17 10:18:22;;;;;;;;;1.00;0.00;;;;;15.31;47.79;101407.38;4787255;29;45632;-73
2022/09/17 10:20:59;;;;;;;;;0.25;0.00;;;;;15.31;47.22;101391.53;4786903;29;45597;-72
2022/09/17 10:23:28;;;;;;;;;0.00;0.00;;;;;15.44;47.36;101408.91;4786830;29;46284;-73
2022/09/17 10:25:54;;;;;;;;;1.00;0.00;;;;;15.51;47.31;101409.28;4786416;29;45598;-72
2022/09/17 10:28:28;;;;;;;;;0.00;0.00;;;;;15.59;47.15;101404.28;4786220;29;45646;-74
2022/09/17 10:30:57;;;;;;;;;0.00;0.00;;;;;15.62;47.53;101390.81;4786257;29;46553;-73
2022/09/17 10:33:26;;;;;;;;;0.00;0.00;;;;;15.73;46.91;101405.81;4785591;29;46046;-72
2022/09/17 10:36:02;;;;;;;;;0.00;0.00;;;;;15.77;46.91;101394.88;4824858;29;45721;-72
2022/09/17 10:38:39;;;;;;;;;0.00;0.00;;;;;15.80;46.49;101402.56;4824460;29;45701;-73
2022/09/17 10:41:13;;;;;;;;;1.00;0.00;;;;;15.81;46.65;101409.53;4824140;29;46634;-72
2022/09/17 10:43:40;;;;;;;;;0.00;0.00;;;;;15.88;46.11;101394.84;4823655;29;46153;-74
2022/09/17 10:46:09;;;;;;;;;1.25;0.00;;;;;15.94;46.30;101377.66;4824544;29;45676;-74
2022/09/17 10:48:42;;;;;;;;;1.50;0.50;;;;;16.01;46.21;101385.94;4824775;29;45618;-74
2022/09/17 10:51:09;;;;;;;;;0.00;0.00;;;;;16.05;46.28;101384.72;4807865;29;46554;-74
2022/09/17 10:54:01;;;;;;;;;0.00;0.00;;;;;16.13;45.31;101392.88;4824710;29;46258;-74
2022/09/17 10:56:35;;;;;;;;;0.25;0.25;;;;;16.20;44.89;101375.50;4823890;29;45684;-73
2022/09/17 10:59:19;;;;;;;;;1.00;1.00;;;;;16.28;45.06;101388.97;4824474;29;45808;-72
2022/09/17 11:02:12;;;;;;;;;1.25;0.00;;;;;16.26;44.90;101373.22;4824212;29;46502;-75
2022/09/17 11:05:01;;;;;;;;;0.00;0.00;;;;;16.31;44.51;101375.47;4824090;29;45934;-76
2022/09/17 11:07:38;;;;;;;;;0.75;0.25;;;;;16.27;44.26;101374.06;4822387;29;45673;-73
2022/09/17 11:10:11;;;;;;;;;0.00;0.00;;;;;16.26;44.08;101385.59;4823559;29;45679;-74
2022/09/17 11:13:04;;;;;;;;;1.00;0.00;;;;;16.22;43.52;101365.66;4782752;29;1217312;-72
2022/09/17 11:15:59;;;;;;;;;0.00;0.00;;;;;16.24;43.39;101361.94;4824650;29;47184;-71
2022/09/17 11:18:25;;;;;;;;;0.00;0.00;;;;;16.33;43.27;101355.03;4749882;29;45629;-74
2022/09/17 11:21:04;;;;;;;;;0.25;0.00;;;;;16.41;43.52;101378.22;4750275;29;45705;-70
2022/09/17 11:24:00;;;;;;;;;0.00;0.00;;;;;16.45;42.57;101347.88;4750040;29;45680;-74
2022/09/17 11:27:10;;;;;;;;;0.00;0.00;;;;;16.43;41.54;101382.41;4750309;29;46335;-74
2022/09/17 11:30:02;;;;;;;;;0.00;0.00;;;;;16.41;41.50;101344.63;4696603;30;45573;-73
2022/09/17 11:33:02;;;;;;;;;1.00;0.00;;;;;16.43;42.05;101350.66;4697452;30;46009;-74
2022/09/17 11:35:50;;;;;;;;;1.00;0.00;;;;;16.48;41.45;101345.81;4696852;30;47564;-72
2022/09/17 11:38:38;;;;;;;;;0.00;0.00;;;;;16.56;41.94;101366.34;4696575;30;45895;-71
2022/09/17 11:44:57;;;;;;;;;0.50;0.50;;;;;16.62;40.99;101358.78;4697018;30;45731;-72
2022/09/17 11:47:33;;;;;;;;;0.00;0.00;;;;;16.66;40.95;101343.47;4679567;30;47028;-73
2022/09/17 11:50:21;;;;;;;;;0.00;0.00;;;;;16.71;40.72;101336.81;4679245;30;46638;-72
2022/09/17 11:53:03;;;;;;;;;0.25;0.00;;;;;16.79;41.14;101346.72;4679435;30;45618;-72
2022/09/17 11:55:57;;;;;;;;;0.75;0.00;;;;;16.87;41.45;101357.50;4703933;30;45929;-71
2022/09/17 12:01:51;;;;;;;;;0.00;0.00;;;;;16.92;40.67;101357.97;4731600;30;46179;-72
2022/09/17 12:04:32;;;;;;;;;0.00;0.00;;;;;16.96;40.61;101340.84;4731269;30;45584;-73
2022/09/17 12:07:17;;;;;;;;;0.00;0.00;;;;;17.00;40.85;101347.56;4785267;29;45686;-72
2022/09/17 12:09:49;;;;;;;;;1.00;0.00;;;;;17.02;40.26;101350.91;4770214;29;47432;-73
2022/09/17 12:12:22;;;;;;;;;0.00;0.00;;;;;17.04;39.76;101358.72;4785186;29;46329;-73
2022/09/17 12:14:58;;;;;;;;;0.00;0.00;;;;;17.02;39.56;101371.22;4767697;29;45829;-70
2022/09/17 12:17:32;;;;;;;;;0.00;0.00;;;;;17.01;39.12;101343.06;4767487;29;45617;-73
2022/09/17 12:20:08;;;;;;;;;0.00;0.00;;;;;17.02;39.26;101347.41;4766277;29;47490;-71
2022/09/17 12:22:38;;;;;;;;;0.00;0.00;;;;;17.05;39.79;101326.81;4767193;29;46987;-73
2022/09/17 12:25:05;;;;;;;;;0.00;0.00;;;;;17.13;39.20;101324.31;4804898;29;45636;-72
2022/09/17 12:27:58;;;;;;;;;0.00;0.00;;;;;17.16;38.99;101305.53;4805131;29;45756;-72
2022/09/17 12:30:31;;;;;;;;;0.00;0.00;;;;;17.23;38.86;101329.66;4805323;29;46720;-73
2022/09/17 12:33:06;;;;;;;;;0.00;0.00;;;;;17.29;39.38;101325.63;4805525;29;47328;-73
2022/09/17 12:35:51;;;;;;;;;0.00;0.00;;;;;17.29;38.90;101320.34;4806074;29;45843;-83
2022/09/17 12:38:22;;;;;;;;;1.50;0.00;;;;;17.28;38.40;101329.25;4803268;29;45672;-75
2022/09/17 12:41:03;;;;;;;;;0.00;0.00;;;;;17.30;37.71;101335.25;4802633;29;47716;-73
2022/09/17 12:43:52;;;;;;;;;0.00;0.00;;;;;17.30;37.59;101311.41;4802999;29;45633;-74
2022/09/17 12:46:36;;;;;;;;;0.00;0.00;;;;;17.31;38.33;101336.94;4802959;29;45786;-74
2022/09/17 12:49:34;;;;;;;;;0.00;0.00;;;;;17.28;37.35;101322.13;4802996;29;45535;-74
2022/09/17 12:52:09;;;;;;;;;0.00;0.00;;;;;17.23;38.40;101334.09;4803194;29;45827;-73
2022/09/17 12:55:05;;;;;;;;;0.00;0.00;;;;;17.26;38.76;101323.25;4802905;29;46398;-73
2022/09/17 13:01:03;;;;;;;;;0.00;0.00;;;;;17.33;38.92;101335.81;4803277;29;45563;-73
2022/09/17 13:03:44;;;;;;;;;0.25;0.00;;;;;17.38;38.76;101319.53;4803174;29;45560;-73